createdAt,value
2019-04-29T00:01:09.248Z,9.73
2019-04-29T00:03:38.731Z,9.30
2019-04-29T00:06:08.281Z,9.70
2019-04-29T00:08:37.865Z,10.43
2019-04-29T00:11:07.376Z,9.63
2019-04-29T00:13:36.935Z,9.87
2019-04-29T00:16:24.684Z,9.90
2019-04-29T00:21:55.576Z,10.90
2019-04-29T00:24:25.022Z,10.13
2019-04-29T00:26:55.439Z,9.87
2019-04-29T00:29:25.167Z,10.13
2019-04-29T00:31:56.520Z,10.83
2019-04-29T00:34:25.990Z,10.70
2019-04-29T00:37:11.895Z,10.97
2019-04-29T00:39:58.994Z,11.63
2019-04-29T00:42:37.007Z,10.50
2019-04-29T00:48:05.544Z,11.43
2019-04-29T00:50:35.033Z,12.07
2019-04-29T00:53:04.455Z,13.60
2019-04-29T00:55:34.524Z,12.20
2019-04-29T00:58:04.049Z,13.90
2019-04-29T01:00:39.691Z,13.90
2019-04-29T01:03:09.254Z,13.87
2019-04-29T01:05:39.006Z,13.87
2019-04-29T01:08:08.529Z,14.90
2019-04-29T01:10:40.723Z,14.20
2019-04-29T01:13:10.234Z,14.20
2019-04-29T01:15:39.738Z,14.60
2019-04-29T01:18:09.303Z,14.20
2019-04-29T01:20:38.903Z,14.93
2019-04-29T01:23:08.463Z,15.17
2019-04-29T01:25:38.002Z,14.00
2019-04-29T01:28:25.730Z,14.07
2019-04-29T01:30:57.972Z,15.40
2019-04-29T01:33:27.511Z,14.93
2019-04-29T01:36:36.700Z,14.63
2019-04-29T01:39:09.545Z,15.10
2019-04-29T01:41:53.583Z,14.90
2019-04-29T01:44:24.604Z,14.20
2019-04-29T01:46:54.978Z,14.20
2019-04-29T01:49:24.546Z,14.07
2019-04-29T01:51:54.083Z,14.40
2019-04-29T01:54:24.338Z,14.20
2019-04-29T01:56:53.876Z,14.47
2019-04-29T01:59:23.481Z,14.27
2019-04-29T02:01:54.301Z,13.93
2019-04-29T02:04:23.803Z,14.47
2019-04-29T02:06:53.615Z,15.73
2019-04-29T02:09:31.039Z,14.43
2019-04-29T02:12:00.693Z,15.17
2019-04-29T02:14:30.163Z,14.73
2019-04-29T02:17:01.953Z,15.37
2019-04-29T02:19:31.502Z,15.00
2019-04-29T02:22:23.147Z,15.13
2019-04-29T02:24:56.788Z,15.00
2019-04-29T02:27:28.574Z,16.77
2019-04-29T02:29:58.188Z,17.23
2019-04-29T02:32:28.211Z,18.57
2019-04-29T02:34:58.720Z,17.40
2019-04-29T02:37:51.605Z,17.40
2019-04-29T02:40:30.658Z,18.43
2019-04-29T02:43:06.709Z,18.67
2019-04-29T02:45:36.241Z,17.40
2019-04-29T02:48:06.833Z,18.33
2019-04-29T02:50:37.305Z,17.47
2019-04-29T02:53:06.931Z,18.17
2019-04-29T02:55:43.838Z,19.13
2019-04-29T02:58:31.095Z,19.07
2019-04-29T03:01:08.738Z,18.87
2019-04-29T03:04:07.128Z,19.97
2019-04-29T03:06:36.915Z,18.47
2019-04-29T03:09:11.138Z,20.00
2019-04-29T03:14:28.461Z,18.70
2019-04-29T03:17:01.745Z,19.07
2019-04-29T03:19:59.881Z,19.00
2019-04-29T03:22:31.649Z,20.17
2019-04-29T03:25:01.929Z,21.23
2019-04-29T03:27:31.422Z,20.87
2019-04-29T03:30:00.929Z,20.20
2019-04-29T03:32:32.787Z,21.10
2019-04-29T03:35:02.446Z,22.80
2019-04-29T03:37:32.070Z,22.20
2019-04-29T03:42:57.621Z,20.97
2019-04-29T03:45:29.522Z,22.03
2019-04-29T03:48:02.699Z,20.80
2019-04-29T03:50:32.230Z,20.80
2019-04-29T03:53:03.037Z,21.23
2019-04-29T03:55:39.592Z,21.30
2019-04-29T03:58:03.722Z,21.30
2019-04-29T04:00:33.360Z,20.53
2019-04-29T04:03:27.803Z,21.30
2019-04-29T04:06:24.619Z,21.00
2019-04-29T04:09:11.030Z,19.83
2019-04-29T04:11:40.671Z,21.27
2019-04-29T04:14:11.425Z,19.20
2019-04-29T04:16:58.969Z,20.90
2019-04-29T04:19:30.158Z,19.63
2019-04-29T04:21:59.691Z,19.70
2019-04-29T04:24:29.227Z,20.10
2019-04-29T04:27:00.975Z,20.70
2019-04-29T04:29:30.519Z,19.47
2019-04-29T04:32:01.298Z,19.37
2019-04-29T04:34:32.179Z,18.80
2019-04-29T04:37:04.518Z,19.50
2019-04-29T04:39:37.401Z,19.67
2019-04-29T04:42:07.764Z,20.40
2019-04-29T04:44:49.298Z,20.13
2019-04-29T04:47:21.001Z,19.90
2019-04-29T04:49:50.496Z,21.23
2019-04-29T04:52:21.186Z,21.33
2019-04-29T04:54:52.682Z,19.60
2019-04-29T04:57:25.516Z,19.23
2019-04-29T05:00:00.674Z,20.33
2019-04-29T05:02:30.486Z,20.83
2019-04-29T05:05:00.157Z,19.50
2019-04-29T05:07:29.772Z,20.37
2019-04-29T05:10:02.661Z,19.10
2019-04-29T05:12:57.327Z,19.97
2019-04-29T05:15:29.115Z,19.93
2019-04-29T05:17:59.735Z,21.87
2019-04-29T05:20:29.537Z,21.07
2019-04-29T05:25:55.915Z,22.03
2019-04-29T05:28:26.456Z,22.40
2019-04-29T05:30:56.239Z,22.87
2019-04-29T05:33:26.765Z,22.80
2019-04-29T05:36:10.283Z,22.50
2019-04-29T05:41:34.874Z,23.27
2019-04-29T05:44:28.100Z,23.80
2019-04-29T05:47:11.817Z,26.60
2019-04-29T05:49:46.865Z,33.77
2019-04-29T05:52:26.499Z,29.30
2019-04-29T05:54:56.436Z,26.77
2019-04-29T05:58:01.359Z,24.33
2019-04-29T06:00:24.235Z,26.07
2019-04-29T06:02:53.955Z,26.03
2019-04-29T06:05:30.191Z,25.80
2019-04-29T06:08:01.139Z,26.20
2019-04-29T06:10:31.015Z,26.40
2019-04-29T06:13:03.787Z,27.17
2019-04-29T06:18:34.537Z,27.00
2019-04-29T06:21:09.175Z,25.30
2019-04-29T06:23:36.584Z,25.60
2019-04-29T06:26:06.062Z,25.93
2019-04-29T06:28:35.534Z,28.83
2019-04-29T06:31:04.980Z,44.77
2019-04-29T06:33:34.348Z,44.27
2019-04-29T06:36:03.886Z,41.73
2019-04-29T06:38:33.194Z,41.43
2019-04-29T06:41:05.508Z,37.40
2019-04-29T06:43:39.001Z,35.33
2019-04-29T06:46:09.015Z,28.87
2019-04-29T06:48:38.491Z,30.40
2019-04-29T06:51:07.958Z,28.70
2019-04-29T06:53:37.937Z,25.57
2019-04-29T06:56:09.630Z,28.20
2019-04-29T06:58:40.965Z,27.47
2019-04-29T07:01:18.423Z,26.73
2019-04-29T07:03:48.485Z,28.03
2019-04-29T07:06:22.240Z,27.10
2019-04-29T07:08:55.424Z,27.17
2019-04-29T07:11:31.843Z,28.37
2019-04-29T07:14:00.826Z,27.33
2019-04-29T07:16:34.440Z,27.83
2019-04-29T07:19:04.264Z,29.93
2019-04-29T07:21:53.972Z,30.97
2019-04-29T07:24:21.959Z,30.63
2019-04-29T07:27:02.869Z,29.70
2019-04-29T07:29:32.752Z,30.40
2019-04-29T07:32:04.866Z,30.13
2019-04-29T07:37:34.144Z,27.97
2019-04-29T07:40:07.602Z,28.10
2019-04-29T07:42:34.927Z,26.13
2019-04-29T07:45:43.587Z,27.63
2019-04-29T07:48:06.282Z,26.13
2019-04-29T07:50:36.308Z,25.57
2019-04-29T07:53:05.876Z,23.90
2019-04-29T07:55:35.680Z,23.93
2019-04-29T07:58:05.328Z,23.13
2019-04-29T08:00:36.269Z,23.00
2019-04-29T08:03:07.761Z,21.87
2019-04-29T08:05:39.240Z,20.27
2019-04-29T08:08:08.837Z,22.10
2019-04-29T08:10:52.229Z,21.73
2019-04-29T08:13:10.189Z,20.60
2019-04-29T08:15:41.454Z,21.47
2019-04-29T08:18:16.486Z,21.23
2019-04-29T08:20:43.073Z,21.03
2019-04-29T08:23:12.908Z,21.37
2019-04-29T08:25:42.586Z,21.90
2019-04-29T08:28:12.213Z,19.77
2019-04-29T08:30:45.924Z,20.70
2019-04-29T08:33:13.287Z,18.43
2019-04-29T08:35:42.822Z,16.70
2019-04-29T08:38:12.496Z,15.50
2019-04-29T08:40:45.061Z,14.70
2019-04-29T08:43:36.527Z,15.07
2019-04-29T08:46:09.144Z,14.10
2019-04-29T08:48:38.740Z,14.70
2019-04-29T08:51:08.353Z,13.83
2019-04-29T08:53:38.981Z,11.77
2019-04-29T08:56:10.263Z,12.73
2019-04-29T08:58:44.152Z,12.70
2019-04-29T09:01:13.361Z,13.00
2019-04-29T09:03:43.225Z,12.23
2019-04-29T09:06:13.975Z,12.33
2019-04-29T09:08:54.486Z,12.17
2019-04-29T09:11:15.837Z,11.93
2019-04-29T09:13:45.511Z,11.33
2019-04-29T09:16:15.277Z,12.87
2019-04-29T09:18:45.086Z,13.87
2019-04-29T09:21:14.692Z,12.73
2019-04-29T09:23:46.148Z,13.17
2019-04-29T09:26:40.739Z,11.10
2019-04-29T09:29:31.357Z,9.43
2019-04-29T09:32:01.211Z,10.97
2019-04-29T09:34:31.180Z,12.43
2019-04-29T09:37:02.179Z,10.57
2019-04-29T09:42:45.578Z,11.40
2019-04-29T09:45:25.013Z,10.90
2019-04-29T09:47:54.538Z,12.33
2019-04-29T09:50:24.072Z,11.43
2019-04-29T09:52:55.179Z,12.70
2019-04-29T09:58:20.716Z,11.87
2019-04-29T10:01:13.773Z,13.13
2019-04-29T10:04:00.078Z,12.67
2019-04-29T10:06:32.438Z,13.13
2019-04-29T10:09:02.007Z,12.40
2019-04-29T10:11:31.559Z,13.03
2019-04-29T10:14:01.126Z,12.47
2019-04-29T10:16:51.470Z,12.43
2019-04-29T10:19:54.962Z,11.97
2019-04-29T10:22:25.782Z,11.67
2019-04-29T10:27:41.348Z,9.80
2019-04-29T10:30:11.209Z,10.80
2019-04-29T10:32:42.545Z,9.73
2019-04-29T10:35:14.375Z,9.50
2019-04-29T10:37:44.178Z,9.00
2019-04-29T10:40:36.021Z,7.70
2019-04-29T10:43:15.527Z,8.57
2019-04-29T10:46:02.092Z,8.50
2019-04-29T10:48:43.188Z,8.60
2019-04-29T10:51:16.426Z,8.53
2019-04-29T10:53:52.717Z,8.57
2019-04-29T11:02:35.896Z,9.17
2019-04-29T11:05:34.758Z,8.60
2019-04-29T11:08:45.299Z,8.40
2019-04-29T11:11:23.405Z,8.20
2019-04-29T11:13:51.521Z,7.80
2019-04-29T11:16:22.929Z,7.73
2019-04-29T11:19:00.173Z,7.80
2019-04-29T11:21:29.467Z,8.03
2019-04-29T11:24:14.675Z,7.60
2019-04-29T11:26:54.431Z,6.90
2019-04-29T11:29:27.321Z,8.17
2019-04-29T11:31:57.402Z,7.93
2019-04-29T11:34:55.932Z,8.17
2019-04-29T11:37:25.869Z,6.87
2019-04-29T11:39:57.288Z,6.90
2019-04-29T11:42:27.228Z,6.80
2019-04-29T11:45:02.165Z,6.93
2019-04-29T11:47:29.863Z,6.27
2019-04-29T11:50:12.012Z,6.47
2019-04-29T11:55:42.286Z,6.57
2019-04-29T11:58:19.283Z,6.27
2019-04-29T12:01:12.481Z,6.33
2019-04-29T12:06:41.485Z,5.53
2019-04-29T12:09:11.575Z,5.93
2019-04-29T12:11:41.873Z,7.37
2019-04-29T12:14:19.529Z,7.50
2019-04-29T12:17:06.908Z,7.47
2019-04-29T12:19:38.060Z,6.73
2019-04-29T12:22:12.076Z,7.40
2019-04-29T12:24:40.494Z,6.50
2019-04-29T12:27:14.817Z,6.93
2019-04-29T12:29:48.972Z,7.10
2019-04-29T12:32:36.934Z,6.17
2019-04-29T12:35:25.904Z,6.33
2019-04-29T12:41:20.546Z,7.60
2019-04-29T12:44:10.553Z,7.30
2019-04-29T12:46:43.682Z,7.20
2019-04-29T12:49:13.786Z,7.30
2019-04-29T12:51:45.973Z,6.67
2019-04-29T12:54:15.653Z,6.80
2019-04-29T12:56:49.241Z,7.63
2019-04-29T12:59:18.924Z,7.10
2019-04-29T13:02:07.453Z,7.40
2019-04-29T13:04:54.903Z,7.50
2019-04-29T13:10:33.451Z,7.07
2019-04-29T13:13:03.880Z,7.93
2019-04-29T13:16:07.494Z,7.47
2019-04-29T13:22:14.902Z,7.73
2019-04-29T13:24:42.657Z,7.87
2019-04-29T13:27:16.240Z,6.90
2019-04-29T13:32:31.249Z,5.57
2019-04-29T13:35:10.919Z,6.27
2019-04-29T13:37:56.418Z,5.60
2019-04-29T13:40:26.945Z,6.03
2019-04-29T13:42:58.543Z,6.80
2019-04-29T13:45:36.468Z,6.40
2019-04-29T13:51:14.472Z,5.90
2019-04-29T13:53:44.760Z,5.90
2019-04-29T13:56:32.690Z,5.87
2019-04-29T13:58:59.878Z,5.40
2019-04-29T14:01:59.892Z,6.03
2019-04-29T14:04:28.859Z,5.00
2019-04-29T14:06:58.440Z,5.60
2019-04-29T14:09:35.066Z,5.70
2019-04-29T14:12:46.010Z,5.97
2019-04-29T14:14:42.363Z,5.73
2019-04-29T14:20:15.746Z,5.20
2019-04-29T14:22:45.567Z,5.50
2019-04-29T14:25:15.339Z,5.27
2019-04-29T14:27:46.448Z,5.07
2019-04-29T14:30:20.809Z,4.83
2019-04-29T14:32:55.756Z,4.73
2019-04-29T14:35:43.898Z,4.77
2019-04-29T14:38:11.948Z,4.83
2019-04-29T14:40:42.663Z,5.07
2019-04-29T14:46:40.529Z,4.93
2019-04-29T14:49:22.780Z,4.90
2019-04-29T14:51:52.282Z,5.03
2019-04-29T14:57:18.011Z,4.50
2019-04-29T14:59:52.225Z,5.23
2019-04-29T15:05:28.795Z,5.00
2019-04-29T15:10:45.949Z,5.13
2019-04-29T15:13:20.994Z,4.80
2019-04-29T15:16:13.991Z,4.80
2019-04-29T15:19:02.602Z,4.80
2019-04-29T15:21:43.874Z,5.17
2019-04-29T15:24:13.536Z,5.40
2019-04-29T15:26:44.597Z,5.13
2019-04-29T15:29:35.016Z,5.93
2019-04-29T15:32:04.516Z,4.30
2019-04-29T15:34:34.027Z,3.80
2019-04-29T15:37:04.777Z,4.00
2019-04-29T15:39:34.846Z,4.00
2019-04-29T15:42:06.558Z,4.53
2019-04-29T15:44:37.218Z,4.30
2019-04-29T15:50:18.156Z,3.73
2019-04-29T15:52:37.535Z,4.00
2019-04-29T16:03:24.805Z,3.63
2019-04-29T16:06:24.639Z,3.50
2019-04-29T16:09:00.130Z,3.30
2019-04-29T16:11:48.950Z,3.53
2019-04-29T16:14:21.572Z,3.33
2019-04-29T16:16:51.541Z,3.27
2019-04-29T16:19:22.605Z,3.83
2019-04-29T16:21:54.075Z,3.47
2019-04-29T16:24:27.002Z,3.50
2019-04-29T16:27:01.352Z,4.40
2019-04-29T16:29:31.129Z,4.20
2019-04-29T16:32:03.171Z,4.63
2019-04-29T16:34:37.586Z,4.80
2019-04-29T16:37:03.337Z,3.67
2019-04-29T16:39:33.782Z,4.20
2019-04-29T16:42:21.682Z,4.30
2019-04-29T16:44:52.391Z,4.37
2019-04-29T16:47:22.310Z,4.30
2019-04-29T16:49:57.602Z,4.80
2019-04-29T16:52:25.584Z,4.63
2019-04-29T16:54:59.055Z,4.47
2019-04-29T16:57:32.198Z,4.47
2019-04-29T17:00:06.351Z,5.37
2019-04-29T17:02:33.791Z,5.13
2019-04-29T17:05:05.198Z,5.83
2019-04-29T17:10:49.956Z,6.10
2019-04-29T17:13:23.847Z,6.17
2019-04-29T17:15:52.337Z,6.77
2019-04-29T17:18:21.547Z,6.50
2019-04-29T17:20:51.269Z,6.43
2019-04-29T17:23:24.519Z,6.40
2019-04-29T17:25:51.937Z,6.77
2019-04-29T17:28:40.367Z,6.60
2019-04-29T17:31:29.189Z,6.70
2019-04-29T17:34:54.638Z,6.17
2019-04-29T17:36:50.416Z,7.20
2019-04-29T17:39:20.243Z,7.27
2019-04-29T17:41:49.648Z,7.30
2019-04-29T17:44:36.726Z,6.67
2019-04-29T17:47:28.138Z,6.33
2019-04-29T17:50:15.255Z,7.00
2019-04-29T17:52:44.639Z,7.43
2019-04-29T17:55:38.035Z,7.63
2019-04-29T17:58:08.402Z,9.07
2019-04-29T18:00:56.143Z,9.00
2019-04-29T18:03:52.076Z,8.80
2019-04-29T18:06:43.236Z,9.83
2019-04-29T18:09:31.744Z,9.20
2019-04-29T18:12:14.829Z,9.30
2019-04-29T18:14:44.799Z,10.00
2019-04-29T18:17:24.216Z,10.10
2019-04-29T18:23:11.013Z,10.87
2019-04-29T18:26:00.428Z,11.23
2019-04-29T18:28:29.992Z,11.40
2019-04-29T18:31:02.204Z,12.00
2019-04-29T18:33:31.701Z,11.20
2019-04-29T18:36:04.378Z,11.50
2019-04-29T18:38:32.347Z,11.27
2019-04-29T18:41:02.017Z,11.33
2019-04-29T18:43:31.452Z,11.30
2019-04-29T18:46:05.385Z,11.13
2019-04-29T18:48:35.268Z,11.87
2019-04-29T18:51:05.792Z,11.57
2019-04-29T18:53:37.704Z,12.17
2019-04-29T18:56:07.545Z,11.10
2019-04-29T18:58:37.048Z,11.40
2019-04-29T19:01:08.275Z,11.53
2019-04-29T19:04:04.654Z,12.27
2019-04-29T19:09:25.298Z,13.03
2019-04-29T19:11:55.371Z,12.63
2019-04-29T19:14:28.169Z,10.43
2019-04-29T19:17:00.154Z,10.93
2019-04-29T19:19:30.864Z,10.67
2019-04-29T19:22:00.765Z,10.97
2019-04-29T19:24:31.637Z,12.47
2019-04-29T19:27:02.127Z,10.20
2019-04-29T19:32:41.152Z,11.80
2019-04-29T19:35:11.312Z,12.57
2019-04-29T19:37:40.741Z,10.20
2019-04-29T19:40:10.278Z,10.40
2019-04-29T19:42:40.879Z,9.17
2019-04-29T19:45:13.345Z,11.13
2019-04-29T19:47:41.587Z,9.53
2019-04-29T19:50:16.611Z,9.40
2019-04-29T19:52:42.318Z,10.37
2019-04-29T19:55:12.599Z,8.90
2019-04-29T19:57:46.684Z,9.07
2019-04-29T20:00:15.150Z,11.03
2019-04-29T20:02:48.211Z,8.77
2019-04-29T20:05:23.911Z,9.13
2019-04-29T20:07:55.533Z,8.93
2019-04-29T20:10:28.462Z,8.87
2019-04-29T20:16:24.965Z,8.47
2019-04-29T20:19:15.188Z,9.33
2019-04-29T20:21:36.450Z,9.60
2019-04-29T20:24:09.793Z,9.03
2019-04-29T20:26:39.064Z,9.07
2019-04-29T20:29:08.521Z,9.03
2019-04-29T20:31:57.695Z,9.23
2019-04-29T20:34:28.229Z,9.00
2019-04-29T20:36:57.972Z,9.33
2019-04-29T20:39:27.584Z,9.47
2019-04-29T20:42:01.043Z,9.30
2019-04-29T20:44:28.498Z,9.90
2019-04-29T20:47:16.749Z,9.60
2019-04-29T20:49:30.886Z,9.70
2019-04-29T20:52:09.101Z,9.63
2019-04-29T20:54:39.981Z,9.50
2019-04-29T20:57:17.392Z,10.10
2019-04-29T20:59:42.136Z,10.10
2019-04-29T21:02:13.010Z,8.97
2019-04-29T21:04:46.460Z,9.47
2019-04-29T21:07:18.516Z,9.00
2019-04-29T21:09:45.732Z,9.17
2019-04-29T21:12:36.725Z,9.17
2019-04-29T21:15:14.644Z,8.93
2019-04-29T21:17:40.277Z,9.27
2019-04-29T21:20:09.434Z,9.07
2019-04-29T21:22:39.163Z,8.97
2019-04-29T21:25:08.821Z,8.57
2019-04-29T21:27:38.250Z,8.30
2019-04-29T21:30:07.975Z,7.97
2019-04-29T21:32:38.936Z,9.07
2019-04-29T21:35:18.589Z,8.87
2019-04-29T21:38:17.874Z,9.10
2019-04-29T21:40:50.995Z,8.20
2019-04-29T21:43:25.961Z,8.90
2019-04-29T21:45:55.608Z,9.33
2019-04-29T21:48:33.074Z,9.53
2019-04-29T21:50:56.372Z,9.70
2019-04-29T21:53:25.755Z,9.33
2019-04-29T21:55:55.476Z,9.23
2019-04-29T21:58:28.663Z,8.67
2019-04-29T22:00:59.112Z,8.67
2019-04-29T22:03:28.890Z,8.97
2019-04-29T22:06:00.369Z,9.83
2019-04-29T22:08:30.017Z,9.23
2019-04-29T22:11:04.913Z,9.47
2019-04-29T22:13:37.528Z,8.30
2019-04-29T22:16:02.297Z,8.27
2019-04-29T22:18:31.812Z,8.70
2019-04-29T22:21:01.425Z,9.00
2019-04-29T22:23:30.813Z,9.57
2019-04-29T22:26:00.215Z,9.53
2019-04-29T22:28:29.583Z,9.00
2019-04-29T22:30:59.049Z,9.00
2019-04-29T22:33:29.662Z,8.53
2019-04-29T22:35:59.519Z,8.67
2019-04-29T22:38:29.044Z,8.90
2019-04-29T22:41:00.305Z,9.10
2019-04-29T22:46:35.817Z,8.93
2019-04-29T22:49:05.820Z,9.50
2019-04-29T22:51:35.581Z,9.17
2019-04-29T22:54:05.043Z,8.90
2019-04-29T22:56:36.054Z,9.40
2019-04-29T22:59:05.845Z,8.90
2019-04-29T23:01:36.386Z,9.27
2019-04-29T23:04:09.690Z,9.03
2019-04-29T23:06:39.787Z,9.13
2019-04-29T23:09:11.951Z,9.60
2019-04-29T23:11:40.777Z,9.60
2019-04-29T23:14:10.845Z,9.40
2019-04-29T23:16:42.030Z,8.93
2019-04-29T23:19:13.934Z,8.87
2019-04-29T23:22:10.665Z,9.20
2019-04-29T23:24:55.743Z,8.83
2019-04-29T23:27:25.989Z,9.60
2019-04-29T23:29:55.665Z,9.17
2019-04-29T23:32:25.451Z,9.43
2019-04-29T23:34:57.001Z,9.47
2019-04-29T23:37:27.621Z,9.27
2019-04-29T23:39:57.572Z,9.60
2019-04-29T23:42:27.145Z,9.87
2019-04-29T23:44:57.325Z,10.27
2019-04-29T23:47:26.904Z,10.17
2019-04-29T23:49:56.546Z,10.80
2019-04-29T23:52:26.926Z,10.03
2019-04-29T23:54:56.672Z,10.37
2019-04-29T23:57:45.954Z,10.80
